Aérodrome :
LOGIN :

S'inscrire | Disclaimer

   EN    FR    IT 

 










Légende :    VFR   VFR Marginal   IFR   IFR Intensif   IFR Très Intensif
Visi : 
Plafond : 
>= 8 km
>= 3000ft
5 à 8 km
1000 à 3000 ft
1500m à 5 km
500 à 1000 ft
800 à 1500m
200 à 500 ft
< 800m
< 200 ft
Symboles :   Orages  Brouillard  Fortes neiges  Fortes précipitations  Vent > 20 kt
SIGMETs :   Divers  Orages  Givrage  Turbulence  Onde Orograph.  Cendres Volcan.







- Altitude de l'aérodrome : 410 ft
- Code IATA : AVB


LIPA - Aviano AB Pordenone

DERNIER METAR :
  • 151055Z 10004KT 9999 FEW025 SCT030 11/07 Q0998 RMK BKN VIS MIN 9999 WIND THR05 /////KT WIND THR23 /////KT A2950 BLU

METARs EXPIRÉS :
  • 150955Z 07004KT 9999 FEW020 SCT070 10/07 Q0999 RMK BKN VIS MIN 9999 WIND THR05 /////KT WIND THR23 /////KT A2951 BLU
  • 150855Z 04006KT 9999 FEW035 SCT040 08/06 Q0999 RMK BKN VIS MIN 9999 WIND THR05 /////KT WIND THR23 /////KT A2951 BLU

TAF TAF LIPA
Valide du 15 à 12h jusqu'au 15 à 21h UTC


151100Z 1512/1521 06005KT 9999 FEW025 BKN030
PROB30
TEMPO 1512/1515 7000 RA
Pas de NOTAMs connus pour ce terrain.
3 SIGMETs publiés pour la FIR Milano (LIMM) :
 
Givrage fort
LIMM SIGMET 7 VALID 150855/151255 LIIP
LIMM MILANO FIR SEV ICE OBS WI N4337 E01019 - N4414 E00931 - N4431 E01007 - N4337 E01238 - N4342 E01114 - N4337 E01019 FL090/150 STNR NC=
Onde orographique forte
LIMM SIGMET 6 VALID 150855/151255 LIIP
LIMM MILANO FIR SEV MTW FCST WI N4438 E00940 - N4344 E01120 - N4331 E01428 - N4509 E01251 - N4438 E00940 FL050/130 STNR WKN=
Turbulence forte
LIMM SIGMET 5 VALID 150840/151240 LIIP
LIMM MILANO FIR SEV TURB FCST SE OF LINE N4409 E00701 - N4512 E01312 FL020/150 STNR NC=



MET'MAP, la Météo Aéronautique d'un coup d'oeil ! - Copyright ORBIFLY Décembre 2007 - Disclaimer

ORBIFLY MET'MAP TEAM :

Programmation & Développement : Alexandra Zaïnal
Conception & Développement : Baudouin d'Aumeries
Co-Programmation & Développement : Marc-Olivier Méhu
Soutien technique & logistique : Manuel Goepfert

Contact : metmap@orbifly.com




SOURCES & CREDITS :

   NOAA